sensor_id;sensor_type;location;lat;lon;timestamp;P1;durP1;ratioP1;P2;durP2;ratioP2
1308;SDS011;647;48.840;9.314;2023-03-01T00:00:04;75.78;;;14.80;;
1308;SDS011;647;48.840;9.314;2023-03-01T00:02:33;79.50;;;16.48;;
1308;SDS011;647;48.840;9.314;2023-03-01T00:05:00;80.35;;;17.10;;
1308;SDS011;647;48.840;9.314;2023-03-01T00:07:29;82.03;;;18.45;;
1308;SDS011;647;48.840;9.314;2023-03-01T00:09:56;77.05;;;17.55;;
1308;SDS011;647;48.840;9.314;2023-03-01T00:12:23;79.85;;;18.50;;
1308;SDS011;647;48.840;9.314;2023-03-01T00:14:50;82.13;;;18.50;;
1308;SDS011;647;48.840;9.314;2023-03-01T00:17:17;84.90;;;18.05;;
1308;SDS011;647;48.840;9.314;2023-03-01T00:19:44;81.20;;;17.67;;
1308;SDS011;647;48.840;9.314;2023-03-01T00:22:11;80.32;;;16.90;;
1308;SDS011;647;48.840;9.314;2023-03-01T00:24:39;79.80;;;16.42;;
1308;SDS011;647;48.840;9.314;2023-03-01T00:27:07;78.85;;;16.58;;
1308;SDS011;647;48.840;9.314;2023-03-01T00:29:34;78.53;;;15.55;;
1308;SDS011;647;48.840;9.314;2023-03-01T00:32:01;79.50;;;16.80;;
1308;SDS011;647;48.840;9.314;2023-03-01T00:34:28;79.20;;;17.27;;
1308;SDS011;647;48.840;9.314;2023-03-01T00:36:55;75.75;;;15.23;;
1308;SDS011;647;48.840;9.314;2023-03-01T00:39:29;79.50;;;18.10;;
1308;SDS011;647;48.840;9.314;2023-03-01T00:41:58;80.15;;;17.05;;
1308;SDS011;647;48.840;9.314;2023-03-01T00:44:25;76.00;;;16.63;;
1308;SDS011;647;48.840;9.314;2023-03-01T00:46:53;78.05;;;17.38;;
1308;SDS011;647;48.840;9.314;2023-03-01T00:49:20;86.47;;;17.38;;
1308;SDS011;647;48.840;9.314;2023-03-01T00:51:49;79.97;;;18.25;;
1308;SDS011;647;48.840;9.314;2023-03-01T00:54:16;83.93;;;18.95;;
1308;SDS011;647;48.840;9.314;2023-03-01T00:56:43;81.20;;;18.77;;
1308;SDS011;647;48.840;9.314;2023-03-01T00:59:11;82.53;;;16.92;;
1308;SDS011;647;48.840;9.314;2023-03-01T01:01:39;78.15;;;16.85;;
1308;SDS011;647;48.840;9.314;2023-03-01T01:04:06;87.40;;;18.23;;
1308;SDS011;647;48.840;9.314;2023-03-01T01:06:34;77.75;;;16.05;;
1308;SDS011;647;48.840;9.314;2023-03-01T01:09:02;84.25;;;18.90;;
1308;SDS011;647;48.840;9.314;2023-03-01T01:11:30;86.60;;;21.45;;
1308;SDS011;647;48.840;9.314;2023-03-01T01:13:57;82.03;;;18.92;;
1308;SDS011;647;48.840;9.314;2023-03-01T01:16:26;85.90;;;18.55;;
1308;SDS011;647;48.840;9.314;2023-03-01T01:18:54;84.40;;;19.40;;
1308;SDS011;647;48.840;9.314;2023-03-01T01:21:22;85.70;;;20.42;;
1308;SDS011;647;48.840;9.314;2023-03-01T01:23:50;83.90;;;19.33;;
1308;SDS011;647;48.840;9.314;2023-03-01T01:26:18;86.45;;;20.25;;
1308;SDS011;647;48.840;9.314;2023-03-01T01:28:46;79.20;;;16.40;;
1308;SDS011;647;48.840;9.314;2023-03-01T01:31:13;84.70;;;19.48;;
1308;SDS011;647;48.840;9.314;2023-03-01T01:33:42;83.90;;;18.75;;
1308;SDS011;647;48.840;9.314;2023-03-01T01:36:09;85.38;;;20.25;;
1308;SDS011;647;48.840;9.314;2023-03-01T01:38:37;78.47;;;17.27;;
1308;SDS011;647;48.840;9.314;2023-03-01T01:41:07;80.72;;;18.13;;
1308;SDS011;647;48.840;9.314;2023-03-01T01:43:37;80.45;;;17.80;;
1308;SDS011;647;48.840;9.314;2023-03-01T01:46:06;78.55;;;17.80;;
1308;SDS011;647;48.840;9.314;2023-03-01T01:48:39;79.82;;;17.77;;
1308;SDS011;647;48.840;9.314;2023-03-01T01:51:10;81.00;;;18.23;;
1308;SDS011;647;48.840;9.314;2023-03-01T01:53:38;84.05;;;16.73;;
1308;SDS011;647;48.840;9.314;2023-03-01T01:56:06;76.22;;;17.75;;
1308;SDS011;647;48.840;9.314;2023-03-01T01:58:34;77.10;;;16.80;;
1308;SDS011;647;48.840;9.314;2023-03-01T02:01:02;81.90;;;16.77;;
1308;SDS011;647;48.840;9.314;2023-03-01T02:03:30;79.90;;;17.98;;
1308;SDS011;647;48.840;9.314;2023-03-01T02:06:03;80.85;;;17.25;;
1308;SDS011;647;48.840;9.314;2023-03-01T02:08:33;81.07;;;18.10;;
1308;SDS011;647;48.840;9.314;2023-03-01T02:11:02;79.68;;;16.98;;
1308;SDS011;647;48.840;9.314;2023-03-01T02:13:30;81.05;;;18.15;;
1308;SDS011;647;48.840;9.314;2023-03-01T02:15:57;80.65;;;18.38;;
1308;SDS011;647;48.840;9.314;2023-03-01T02:18:25;79.53;;;17.35;;
1308;SDS011;647;48.840;9.314;2023-03-01T02:20:56;81.80;;;17.02;;
1308;SDS011;647;48.840;9.314;2023-03-01T02:23:26;81.72;;;18.48;;
1308;SDS011;647;48.840;9.314;2023-03-01T02:25:55;78.75;;;19.23;;
1308;SDS011;647;48.840;9.314;2023-03-01T02:28:27;77.35;;;17.40;;
1308;SDS011;647;48.840;9.314;2023-03-01T02:30:55;78.70;;;18.52;;
1308;SDS011;647;48.840;9.314;2023-03-01T02:33:40;81.20;;;20.50;;
1308;SDS011;647;48.840;9.314;2023-03-01T02:36:09;81.03;;;18.40;;
1308;SDS011;647;48.840;9.314;2023-03-01T02:38:38;81.22;;;18.02;;
1308;SDS011;647;48.840;9.314;2023-03-01T02:41:05;77.78;;;17.17;;
1308;SDS011;647;48.840;9.314;2023-03-01T02:43:34;81.32;;;17.60;;
1308;SDS011;647;48.840;9.314;2023-03-01T02:46:03;83.10;;;17.52;;
1308;SDS011;647;48.840;9.314;2023-03-01T02:48:38;78.40;;;19.05;;
1308;SDS011;647;48.840;9.314;2023-03-01T02:51:07;81.70;;;20.58;;
1308;SDS011;647;48.840;9.314;2023-03-01T02:53:39;83.97;;;19.60;;
1308;SDS011;647;48.840;9.314;2023-03-01T02:56:08;80.55;;;19.25;;
1308;SDS011;647;48.840;9.314;2023-03-01T02:58:39;80.78;;;18.52;;
1308;SDS011;647;48.840;9.314;2023-03-01T03:01:10;82.20;;;18.20;;
1308;SDS011;647;48.840;9.314;2023-03-01T03:03:38;89.57;;;19.77;;
1308;SDS011;647;48.840;9.314;2023-03-01T03:06:05;83.00;;;19.00;;
1308;SDS011;647;48.840;9.314;2023-03-01T03:08:33;79.53;;;18.55;;
1308;SDS011;647;48.840;9.314;2023-03-01T03:11:00;82.80;;;20.45;;
1308;SDS011;647;48.840;9.314;2023-03-01T03:13:27;80.90;;;18.00;;
1308;SDS011;647;48.840;9.314;2023-03-01T03:15:55;84.22;;;19.73;;
1308;SDS011;647;48.840;9.314;2023-03-01T03:18:23;82.35;;;20.10;;
1308;SDS011;647;48.840;9.314;2023-03-01T03:20:51;84.35;;;21.45;;
1308;SDS011;647;48.840;9.314;2023-03-01T03:23:19;86.10;;;21.10;;
1308;SDS011;647;48.840;9.314;2023-03-01T03:25:47;89.60;;;20.88;;
1308;SDS011;647;48.840;9.314;2023-03-01T03:28:14;83.90;;;19.48;;
1308;SDS011;647;48.840;9.314;2023-03-01T03:30:42;79.97;;;17.52;;
1308;SDS011;647;48.840;9.314;2023-03-01T03:33:11;80.50;;;18.13;;
1308;SDS011;647;48.840;9.314;2023-03-01T03:35:39;81.05;;;18.52;;
1308;SDS011;647;48.840;9.314;2023-03-01T03:38:08;81.00;;;19.50;;
1308;SDS011;647;48.840;9.314;2023-03-01T03:40:41;82.38;;;20.02;;
1308;SDS011;647;48.840;9.314;2023-03-01T03:43:09;82.20;;;17.55;;
1308;SDS011;647;48.840;9.314;2023-03-01T03:45:37;80.10;;;18.88;;
1308;SDS011;647;48.840;9.314;2023-03-01T03:48:04;86.40;;;21.05;;
1308;SDS011;647;48.840;9.314;2023-03-01T03:50:33;80.50;;;17.67;;
1308;SDS011;647;48.840;9.314;2023-03-01T03:53:01;82.75;;;19.02;;
1308;SDS011;647;48.840;9.314;2023-03-01T03:55:28;82.57;;;19.70;;
1308;SDS011;647;48.840;9.314;2023-03-01T03:57:56;80.97;;;19.15;;
1308;SDS011;647;48.840;9.314;2023-03-01T04:00:27;82.90;;;18.90;;
1308;SDS011;647;48.840;9.314;2023-03-01T04:02:54;81.47;;;20.17;;
1308;SDS011;647;48.840;9.314;2023-03-01T04:05:21;82.65;;;20.67;;
1308;SDS011;647;48.840;9.314;2023-03-01T04:07:50;85.00;;;20.00;;
1308;SDS011;647;48.840;9.314;2023-03-01T04:10:26;83.32;;;19.70;;
1308;SDS011;647;48.840;9.314;2023-03-01T04:12:53;81.05;;;18.58;;
1308;SDS011;647;48.840;9.314;2023-03-01T04:15:21;84.50;;;19.58;;
1308;SDS011;647;48.840;9.314;2023-03-01T04:17:49;79.22;;;18.77;;
1308;SDS011;647;48.840;9.314;2023-03-01T04:20:18;81.88;;;19.23;;
1308;SDS011;647;48.840;9.314;2023-03-01T04:22:51;81.45;;;18.58;;
1308;SDS011;647;48.840;9.314;2023-03-01T04:25:18;82.80;;;20.67;;
1308;SDS011;647;48.840;9.314;2023-03-01T04:27:45;83.38;;;19.77;;
1308;SDS011;647;48.840;9.314;2023-03-01T04:30:13;78.95;;;18.65;;
1308;SDS011;647;48.840;9.314;2023-03-01T04:32:40;82.40;;;19.55;;
1308;SDS011;647;48.840;9.314;2023-03-01T04:35:07;83.75;;;17.80;;
1308;SDS011;647;48.840;9.314;2023-03-01T04:37:34;79.43;;;17.75;;
1308;SDS011;647;48.840;9.314;2023-03-01T04:40:03;77.45;;;17.60;;
1308;SDS011;647;48.840;9.314;2023-03-01T04:42:37;82.40;;;19.58;;
1308;SDS011;647;48.840;9.314;2023-03-01T04:45:05;80.05;;;18.50;;
1308;SDS011;647;48.840;9.314;2023-03-01T04:47:38;82.70;;;18.77;;
1308;SDS011;647;48.840;9.314;2023-03-01T04:50:05;79.00;;;18.00;;
1308;SDS011;647;48.840;9.314;2023-03-01T04:52:32;79.07;;;18.58;;
1308;SDS011;647;48.840;9.314;2023-03-01T04:54:59;81.10;;;18.20;;
1308;SDS011;647;48.840;9.314;2023-03-01T04:57:28;86.07;;;22.52;;
1308;SDS011;647;48.840;9.314;2023-03-01T04:59:55;85.50;;;19.55;;
1308;SDS011;647;48.840;9.314;2023-03-01T05:02:22;82.10;;;18.52;;
1308;SDS011;647;48.840;9.314;2023-03-01T05:04:49;83.88;;;20.10;;
1308;SDS011;647;48.840;9.314;2023-03-01T05:07:17;80.63;;;19.50;;
1308;SDS011;647;48.840;9.314;2023-03-01T05:09:45;87.28;;;22.02;;
1308;SDS011;647;48.840;9.314;2023-03-01T05:12:12;88.22;;;22.27;;
1308;SDS011;647;48.840;9.314;2023-03-01T05:14:40;82.10;;;19.95;;
1308;SDS011;647;48.840;9.314;2023-03-01T05:17:08;88.07;;;22.88;;
1308;SDS011;647;48.840;9.314;2023-03-01T05:19:35;85.97;;;20.48;;
1308;SDS011;647;48.840;9.314;2023-03-01T05:22:02;85.15;;;21.33;;
1308;SDS011;647;48.840;9.314;2023-03-01T05:24:30;82.10;;;20.23;;
1308;SDS011;647;48.840;9.314;2023-03-01T05:26:58;84.22;;;19.90;;
1308;SDS011;647;48.840;9.314;2023-03-01T05:29:25;83.47;;;19.23;;
1308;SDS011;647;48.840;9.314;2023-03-01T05:31:55;78.47;;;18.48;;
1308;SDS011;647;48.840;9.314;2023-03-01T05:34:24;82.20;;;19.38;;
1308;SDS011;647;48.840;9.314;2023-03-01T05:36:51;82.68;;;19.60;;
1308;SDS011;647;48.840;9.314;2023-03-01T05:39:19;82.43;;;18.10;;
1308;SDS011;647;48.840;9.314;2023-03-01T05:41:47;83.00;;;20.20;;
1308;SDS011;647;48.840;9.314;2023-03-01T05:44:14;81.00;;;18.00;;
1308;SDS011;647;48.840;9.314;2023-03-01T05:46:42;81.10;;;18.48;;
1308;SDS011;647;48.840;9.314;2023-03-01T05:49:11;82.20;;;18.63;;
1308;SDS011;647;48.840;9.314;2023-03-01T05:51:38;88.85;;;20.05;;
1308;SDS011;647;48.840;9.314;2023-03-01T05:54:06;82.80;;;19.50;;
1308;SDS011;647;48.840;9.314;2023-03-01T05:56:33;85.18;;;22.45;;
1308;SDS011;647;48.840;9.314;2023-03-01T05:59:01;83.30;;;19.50;;
1308;SDS011;647;48.840;9.314;2023-03-01T06:01:28;83.60;;;20.20;;
1308;SDS011;647;48.840;9.314;2023-03-01T06:03:55;82.95;;;20.38;;
1308;SDS011;647;48.840;9.314;2023-03-01T06:06:24;87.32;;;19.50;;
1308;SDS011;647;48.840;9.314;2023-03-01T06:08:51;83.43;;;19.30;;
1308;SDS011;647;48.840;9.314;2023-03-01T06:11:18;79.00;;;18.88;;
1308;SDS011;647;48.840;9.314;2023-03-01T06:13:46;80.45;;;19.08;;
1308;SDS011;647;48.840;9.314;2023-03-01T06:16:13;89.22;;;19.90;;
1308;SDS011;647;48.840;9.314;2023-03-01T06:18:41;85.53;;;20.02;;
1308;SDS011;647;48.840;9.314;2023-03-01T06:21:08;79.72;;;18.92;;
1308;SDS011;647;48.840;9.314;2023-03-01T06:23:36;81.72;;;19.10;;
1308;SDS011;647;48.840;9.314;2023-03-01T06:26:05;83.90;;;20.42;;
1308;SDS011;647;48.840;9.314;2023-03-01T06:28:32;86.38;;;19.40;;
1308;SDS011;647;48.840;9.314;2023-03-01T06:30:59;84.82;;;20.83;;
1308;SDS011;647;48.840;9.314;2023-03-01T06:33:26;82.07;;;20.27;;
1308;SDS011;647;48.840;9.314;2023-03-01T06:35:54;83.32;;;19.83;;
1308;SDS011;647;48.840;9.314;2023-03-01T06:38:21;83.60;;;20.73;;
1308;SDS011;647;48.840;9.314;2023-03-01T06:40:52;87.47;;;19.50;;
1308;SDS011;647;48.840;9.314;2023-03-01T06:43:21;80.20;;;19.50;;
1308;SDS011;647;48.840;9.314;2023-03-01T06:45:48;86.63;;;20.20;;
1308;SDS011;647;48.840;9.314;2023-03-01T06:48:15;87.10;;;19.23;;
1308;SDS011;647;48.840;9.314;2023-03-01T06:50:42;83.55;;;20.27;;
1308;SDS011;647;48.840;9.314;2023-03-01T06:53:09;80.30;;;19.42;;
1308;SDS011;647;48.840;9.314;2023-03-01T06:55:36;85.35;;;21.00;;
1308;SDS011;647;48.840;9.314;2023-03-01T06:58:05;86.93;;;20.95;;
1308;SDS011;647;48.840;9.314;2023-03-01T07:00:32;89.18;;;21.20;;
1308;SDS011;647;48.840;9.314;2023-03-01T07:03:00;82.28;;;19.48;;
1308;SDS011;647;48.840;9.314;2023-03-01T07:05:28;85.63;;;20.83;;
1308;SDS011;647;48.840;9.314;2023-03-01T07:07:55;81.00;;;20.27;;
1308;SDS011;647;48.840;9.314;2023-03-01T07:10:22;127.65;;;24.13;;
1308;SDS011;647;48.840;9.314;2023-03-01T07:12:50;91.85;;;22.63;;
1308;SDS011;647;48.840;9.314;2023-03-01T07:15:18;88.22;;;21.48;;
1308;SDS011;647;48.840;9.314;2023-03-01T07:17:45;85.50;;;20.20;;
1308;SDS011;647;48.840;9.314;2023-03-01T07:20:15;87.82;;;22.65;;
1308;SDS011;647;48.840;9.314;2023-03-01T07:22:42;85.65;;;22.70;;
1308;SDS011;647;48.840;9.314;2023-03-01T07:25:09;81.22;;;19.27;;
1308;SDS011;647;48.840;9.314;2023-03-01T07:27:36;87.47;;;21.10;;
1308;SDS011;647;48.840;9.314;2023-03-01T07:30:04;84.95;;;20.33;;
1308;SDS011;647;48.840;9.314;2023-03-01T07:32:32;89.85;;;20.58;;
1308;SDS011;647;48.840;9.314;2023-03-01T07:34:59;89.55;;;22.52;;
1308;SDS011;647;48.840;9.314;2023-03-01T07:37:26;83.93;;;20.05;;
1308;SDS011;647;48.840;9.314;2023-03-01T07:39:54;84.05;;;20.85;;
1308;SDS011;647;48.840;9.314;2023-03-01T07:42:21;86.13;;;20.10;;
1308;SDS011;647;48.840;9.314;2023-03-01T07:44:48;87.10;;;20.73;;
1308;SDS011;647;48.840;9.314;2023-03-01T07:47:15;83.93;;;20.15;;
1308;SDS011;647;48.840;9.314;2023-03-01T07:49:43;84.30;;;21.75;;
1308;SDS011;647;48.840;9.314;2023-03-01T07:52:10;82.47;;;20.63;;
1308;SDS011;647;48.840;9.314;2023-03-01T07:54:37;82.70;;;19.83;;
1308;SDS011;647;48.840;9.314;2023-03-01T07:57:05;83.40;;;20.10;;
1308;SDS011;647;48.840;9.314;2023-03-01T07:59:32;81.28;;;20.98;;
1308;SDS011;647;48.840;9.314;2023-03-01T08:01:59;85.05;;;21.48;;
1308;SDS011;647;48.840;9.314;2023-03-01T08:04:26;83.35;;;20.67;;
1308;SDS011;647;48.840;9.314;2023-03-01T08:06:54;92.07;;;22.35;;
1308;SDS011;647;48.840;9.314;2023-03-01T08:09:22;84.53;;;20.17;;
1308;SDS011;647;48.840;9.314;2023-03-01T08:11:49;80.03;;;19.75;;
1308;SDS011;647;48.840;9.314;2023-03-01T08:14:16;90.88;;;20.48;;
1308;SDS011;647;48.840;9.314;2023-03-01T08:16:43;84.90;;;19.77;;
1308;SDS011;647;48.840;9.314;2023-03-01T08:19:11;89.88;;;21.27;;
1308;SDS011;647;48.840;9.314;2023-03-01T08:21:38;85.00;;;20.00;;
1308;SDS011;647;48.840;9.314;2023-03-01T08:24:07;83.47;;;20.42;;
1308;SDS011;647;48.840;9.314;2023-03-01T08:26:35;82.30;;;21.00;;
1308;SDS011;647;48.840;9.314;2023-03-01T08:29:03;89.95;;;21.88;;
1308;SDS011;647;48.840;9.314;2023-03-01T08:31:31;88.00;;;22.48;;
1308;SDS011;647;48.840;9.314;2023-03-01T08:34:00;77.78;;;19.35;;
1308;SDS011;647;48.840;9.314;2023-03-01T08:36:29;84.68;;;20.70;;
1308;SDS011;647;48.840;9.314;2023-03-01T08:38:56;84.82;;;20.83;;
1308;SDS011;647;48.840;9.314;2023-03-01T08:41:25;81.18;;;19.73;;
1308;SDS011;647;48.840;9.314;2023-03-01T08:43:52;81.75;;;20.65;;
1308;SDS011;647;48.840;9.314;2023-03-01T08:46:23;80.95;;;18.92;;
1308;SDS011;647;48.840;9.314;2023-03-01T08:48:50;86.53;;;19.98;;
1308;SDS011;647;48.840;9.314;2023-03-01T08:51:18;81.05;;;19.55;;
1308;SDS011;647;48.840;9.314;2023-03-01T08:53:46;80.20;;;19.60;;
1308;SDS011;647;48.840;9.314;2023-03-01T08:56:13;87.53;;;21.60;;
1308;SDS011;647;48.840;9.314;2023-03-01T08:58:44;81.45;;;20.17;;
1308;SDS011;647;48.840;9.314;2023-03-01T09:01:12;84.18;;;19.10;;
1308;SDS011;647;48.840;9.314;2023-03-01T09:03:40;80.25;;;19.17;;
1308;SDS011;647;48.840;9.314;2023-03-01T09:06:07;88.30;;;22.25;;
1308;SDS011;647;48.840;9.314;2023-03-01T09:08:34;83.93;;;20.80;;
1308;SDS011;647;48.840;9.314;2023-03-01T09:11:02;87.40;;;18.52;;
1308;SDS011;647;48.840;9.314;2023-03-01T09:13:29;82.90;;;18.88;;
1308;SDS011;647;48.840;9.314;2023-03-01T09:15:58;79.65;;;19.48;;
1308;SDS011;647;48.840;9.314;2023-03-01T09:18:25;81.25;;;18.73;;
1308;SDS011;647;48.840;9.314;2023-03-01T09:20:52;89.30;;;20.70;;
1308;SDS011;647;48.840;9.314;2023-03-01T09:23:21;83.43;;;20.08;;
1308;SDS011;647;48.840;9.314;2023-03-01T09:25:48;81.20;;;18.65;;
1308;SDS011;647;48.840;9.314;2023-03-01T09:28:15;82.55;;;19.23;;
1308;SDS011;647;48.840;9.314;2023-03-01T09:30:42;82.25;;;18.88;;
1308;SDS011;647;48.840;9.314;2023-03-01T09:33:10;83.40;;;21.95;;
1308;SDS011;647;48.840;9.314;2023-03-01T09:35:39;82.28;;;20.40;;
1308;SDS011;647;48.840;9.314;2023-03-01T09:38:11;80.45;;;19.77;;
1308;SDS011;647;48.840;9.314;2023-03-01T09:40:41;86.38;;;19.70;;
1308;SDS011;647;48.840;9.314;2023-03-01T09:43:11;82.70;;;20.42;;
1308;SDS011;647;48.840;9.314;2023-03-01T09:45:40;82.80;;;19.45;;
1308;SDS011;647;48.840;9.314;2023-03-01T09:48:12;79.68;;;18.55;;
1308;SDS011;647;48.840;9.314;2023-03-01T09:50:40;77.25;;;18.05;;
1308;SDS011;647;48.840;9.314;2023-03-01T09:53:09;76.90;;;16.98;;
1308;SDS011;647;48.840;9.314;2023-03-01T09:55:38;76.40;;;19.03;;
1308;SDS011;647;48.840;9.314;2023-03-01T09:58:15;78.50;;;18.40;;
1308;SDS011;647;48.840;9.314;2023-03-01T10:00:49;78.20;;;17.30;;
1308;SDS011;647;48.840;9.314;2023-03-01T10:03:20;76.40;;;17.67;;
1308;SDS011;647;48.840;9.314;2023-03-01T10:05:59;75.30;;;17.70;;
1308;SDS011;647;48.840;9.314;2023-03-01T10:08:29;77.23;;;17.97;;
1308;SDS011;647;48.840;9.314;2023-03-01T10:10:58;76.40;;;18.10;;
1308;SDS011;647;48.840;9.314;2023-03-01T10:13:26;76.90;;;18.10;;
1308;SDS011;647;48.840;9.314;2023-03-01T10:15:55;77.17;;;18.03;;
1308;SDS011;647;48.840;9.314;2023-03-01T10:18:25;77.17;;;19.80;;
1308;SDS011;647;48.840;9.314;2023-03-01T10:20:54;81.47;;;17.90;;
1308;SDS011;647;48.840;9.314;2023-03-01T10:23:22;75.57;;;18.30;;
1308;SDS011;647;48.840;9.314;2023-03-01T10:25:55;77.23;;;19.87;;
1308;SDS011;647;48.840;9.314;2023-03-01T10:28:25;76.67;;;19.80;;
1308;SDS011;647;48.840;9.314;2023-03-01T10:30:53;80.10;;;19.00;;
1308;SDS011;647;48.840;9.314;2023-03-01T10:33:21;76.13;;;18.30;;
1308;SDS011;647;48.840;9.314;2023-03-01T10:35:50;74.40;;;18.30;;
1308;SDS011;647;48.840;9.314;2023-03-01T10:38:18;75.60;;;18.97;;
1308;SDS011;647;48.840;9.314;2023-03-01T10:40:53;76.00;;;19.23;;
1308;SDS011;647;48.840;9.314;2023-03-01T10:43:22;76.10;;;18.67;;
1308;SDS011;647;48.840;9.314;2023-03-01T10:45:50;77.20;;;19.13;;
1308;SDS011;647;48.840;9.314;2023-03-01T10:48:18;74.07;;;19.03;;
1308;SDS011;647;48.840;9.314;2023-03-01T10:50:50;76.17;;;19.23;;
1308;SDS011;647;48.840;9.314;2023-03-01T10:53:24;73.00;;;18.00;;
1308;SDS011;647;48.840;9.314;2023-03-01T10:55:57;73.87;;;18.70;;
1308;SDS011;647;48.840;9.314;2023-03-01T10:58:25;76.10;;;20.00;;
1308;SDS011;647;48.840;9.314;2023-03-01T11:00:53;76.07;;;18.00;;
1308;SDS011;647;48.840;9.314;2023-03-01T11:03:24;75.60;;;18.87;;
1308;SDS011;647;48.840;9.314;2023-03-01T11:05:58;72.67;;;17.50;;
1308;SDS011;647;48.840;9.314;2023-03-01T11:08:29;72.77;;;18.27;;
1308;SDS011;647;48.840;9.314;2023-03-01T11:11:03;72.07;;;17.27;;
1308;SDS011;647;48.840;9.314;2023-03-01T11:13:30;73.50;;;18.73;;
1308;SDS011;647;48.840;9.314;2023-03-01T11:15:58;74.20;;;18.90;;
1308;SDS011;647;48.840;9.314;2023-03-01T11:18:26;72.10;;;17.80;;
1308;SDS011;647;48.840;9.314;2023-03-01T11:20:54;71.93;;;17.97;;
1308;SDS011;647;48.840;9.314;2023-03-01T11:23:23;70.77;;;17.20;;
1308;SDS011;647;48.840;9.314;2023-03-01T11:25:51;73.50;;;18.20;;
1308;SDS011;647;48.840;9.314;2023-03-01T11:28:20;71.10;;;17.27;;
1308;SDS011;647;48.840;9.314;2023-03-01T11:30:49;68.77;;;16.10;;
1308;SDS011;647;48.840;9.314;2023-03-01T11:33:19;71.93;;;17.33;;
1308;SDS011;647;48.840;9.314;2023-03-01T11:35:49;71.43;;;17.27;;
1308;SDS011;647;48.840;9.314;2023-03-01T11:38:23;71.87;;;17.60;;
1308;SDS011;647;48.840;9.314;2023-03-01T11:40:52;71.57;;;16.93;;
1308;SDS011;647;48.840;9.314;2023-03-01T11:43:26;71.53;;;17.67;;
1308;SDS011;647;48.840;9.314;2023-03-01T11:45:57;70.47;;;16.97;;
1308;SDS011;647;48.840;9.314;2023-03-01T11:48:38;69.80;;;16.27;;
1308;SDS011;647;48.840;9.314;2023-03-01T11:51:08;71.10;;;17.10;;
1308;SDS011;647;48.840;9.314;2023-03-01T11:53:48;68.93;;;16.27;;
1308;SDS011;647;48.840;9.314;2023-03-01T11:56:21;74.47;;;17.57;;
1308;SDS011;647;48.840;9.314;2023-03-01T11:58:55;70.50;;;17.23;;
1308;SDS011;647;48.840;9.314;2023-03-01T12:04:14;69.00;;;15.83;;
1308;SDS011;647;48.840;9.314;2023-03-01T12:06:50;69.50;;;16.63;;
1308;SDS011;647;48.840;9.314;2023-03-01T12:12:13;69.23;;;16.80;;
1308;SDS011;647;48.840;9.314;2023-03-01T12:14:47;69.67;;;16.40;;
1308;SDS011;647;48.840;9.314;2023-03-01T12:17:32;69.70;;;17.07;;
1308;SDS011;647;48.840;9.314;2023-03-01T12:20:12;73.67;;;17.43;;
1308;SDS011;647;48.840;9.314;2023-03-01T12:22:43;69.63;;;17.20;;
1308;SDS011;647;48.840;9.314;2023-03-01T12:25:16;68.50;;;15.30;;
1308;SDS011;647;48.840;9.314;2023-03-01T12:27:57;68.67;;;15.73;;
1308;SDS011;647;48.840;9.314;2023-03-01T12:30:32;69.53;;;16.07;;
1308;SDS011;647;48.840;9.314;2023-03-01T12:33:04;69.13;;;16.10;;
1308;SDS011;647;48.840;9.314;2023-03-01T12:35:54;70.70;;;16.43;;
1308;SDS011;647;48.840;9.314;2023-03-01T12:38:32;71.17;;;16.90;;
1308;SDS011;647;48.840;9.314;2023-03-01T12:41:05;70.03;;;15.23;;
1308;SDS011;647;48.840;9.314;2023-03-01T12:43:40;68.40;;;15.20;;
1308;SDS011;647;48.840;9.314;2023-03-01T12:46:15;67.97;;;15.50;;
1308;SDS011;647;48.840;9.314;2023-03-01T12:48:47;71.50;;;16.60;;
1308;SDS011;647;48.840;9.314;2023-03-01T12:51:17;68.33;;;15.10;;
1308;SDS011;647;48.840;9.314;2023-03-01T12:53:46;69.70;;;15.90;;
1308;SDS011;647;48.840;9.314;2023-03-01T12:56:15;66.97;;;13.67;;
1308;SDS011;647;48.840;9.314;2023-03-01T12:58:50;67.07;;;15.30;;
1308;SDS011;647;48.840;9.314;2023-03-01T13:01:21;69.67;;;16.17;;
1308;SDS011;647;48.840;9.314;2023-03-01T13:04:04;68.43;;;14.77;;
1308;SDS011;647;48.840;9.314;2023-03-01T13:06:35;68.30;;;15.97;;
1308;SDS011;647;48.840;9.314;2023-03-01T13:09:07;71.70;;;16.30;;
1308;SDS011;647;48.840;9.314;2023-03-01T13:11:40;71.27;;;16.70;;
1308;SDS011;647;48.840;9.314;2023-03-01T13:16:54;69.37;;;16.60;;
1308;SDS011;647;48.840;9.314;2023-03-01T13:19:22;68.50;;;17.23;;
1308;SDS011;647;48.840;9.314;2023-03-01T13:21:50;67.60;;;16.50;;
1308;SDS011;647;48.840;9.314;2023-03-01T13:24:25;68.00;;;16.20;;
1308;SDS011;647;48.840;9.314;2023-03-01T13:27:09;67.87;;;15.63;;
1308;SDS011;647;48.840;9.314;2023-03-01T13:29:43;68.47;;;17.20;;
1308;SDS011;647;48.840;9.314;2023-03-01T13:32:20;70.47;;;17.17;;
1308;SDS011;647;48.840;9.314;2023-03-01T13:34:58;69.23;;;17.27;;
1308;SDS011;647;48.840;9.314;2023-03-01T13:37:26;70.80;;;19.07;;
1308;SDS011;647;48.840;9.314;2023-03-01T13:39:56;72.30;;;19.77;;
1308;SDS011;647;48.840;9.314;2023-03-01T13:45:19;70.63;;;19.27;;
1308;SDS011;647;48.840;9.314;2023-03-01T13:47:49;73.67;;;19.47;;
1308;SDS011;647;48.840;9.314;2023-03-01T13:50:18;69.97;;;18.30;;
1308;SDS011;647;48.840;9.314;2023-03-01T13:52:48;72.47;;;20.40;;
1308;SDS011;647;48.840;9.314;2023-03-01T13:55:18;70.90;;;19.57;;
1308;SDS011;647;48.840;9.314;2023-03-01T13:57:46;72.20;;;20.57;;
1308;SDS011;647;48.840;9.314;2023-03-01T14:00:29;76.40;;;19.93;;
1308;SDS011;647;48.840;9.314;2023-03-01T14:03:01;72.17;;;19.17;;
1308;SDS011;647;48.840;9.314;2023-03-01T14:05:29;71.17;;;19.87;;
1308;SDS011;647;48.840;9.314;2023-03-01T14:07:57;69.47;;;18.27;;
1308;SDS011;647;48.840;9.314;2023-03-01T14:10:25;75.00;;;20.17;;
1308;SDS011;647;48.840;9.314;2023-03-01T14:12:57;72.97;;;19.77;;
1308;SDS011;647;48.840;9.314;2023-03-01T14:15:29;70.37;;;18.60;;
1308;SDS011;647;48.840;9.314;2023-03-01T14:17:59;70.80;;;18.10;;
1308;SDS011;647;48.840;9.314;2023-03-01T14:20:31;71.27;;;19.30;;
1308;SDS011;647;48.840;9.314;2023-03-01T14:23:01;70.30;;;19.27;;
1308;SDS011;647;48.840;9.314;2023-03-01T14:25:29;71.10;;;18.63;;
1308;SDS011;647;48.840;9.314;2023-03-01T14:28:03;71.20;;;18.10;;
1308;SDS011;647;48.840;9.314;2023-03-01T14:30:31;70.07;;;18.43;;
1308;SDS011;647;48.840;9.314;2023-03-01T14:33:00;70.40;;;18.63;;
1308;SDS011;647;48.840;9.314;2023-03-01T14:35:28;71.07;;;19.43;;
1308;SDS011;647;48.840;9.314;2023-03-01T14:37:57;70.70;;;19.23;;
1308;SDS011;647;48.840;9.314;2023-03-01T14:40:25;74.27;;;20.73;;
1308;SDS011;647;48.840;9.314;2023-03-01T14:42:53;76.43;;;20.13;;
1308;SDS011;647;48.840;9.314;2023-03-01T14:45:20;77.50;;;20.67;;
1308;SDS011;647;48.840;9.314;2023-03-01T14:47:48;72.47;;;20.03;;
1308;SDS011;647;48.840;9.314;2023-03-01T14:50:18;73.77;;;20.97;;
1308;SDS011;647;48.840;9.314;2023-03-01T14:52:47;71.90;;;19.70;;
1308;SDS011;647;48.840;9.314;2023-03-01T14:55:17;75.70;;;19.60;;
1308;SDS011;647;48.840;9.314;2023-03-01T14:57:46;73.17;;;20.17;;
1308;SDS011;647;48.840;9.314;2023-03-01T15:00:16;77.10;;;21.40;;
1308;SDS011;647;48.840;9.314;2023-03-01T15:02:44;73.10;;;19.17;;
1308;SDS011;647;48.840;9.314;2023-03-01T15:05:13;75.43;;;19.90;;
1308;SDS011;647;48.840;9.314;2023-03-01T15:07:41;76.53;;;19.83;;
1308;SDS011;647;48.840;9.314;2023-03-01T15:10:14;73.30;;;19.50;;
1308;SDS011;647;48.840;9.314;2023-03-01T15:12:45;73.67;;;19.37;;
1308;SDS011;647;48.840;9.314;2023-03-01T15:15:19;71.40;;;17.87;;
1308;SDS011;647;48.840;9.314;2023-03-01T15:17:48;72.17;;;18.73;;
1308;SDS011;647;48.840;9.314;2023-03-01T15:20:19;75.20;;;19.57;;
1308;SDS011;647;48.840;9.314;2023-03-01T15:22:46;74.57;;;19.97;;